Flugplatz Celle Airport

Bericht für ETHC

vom 01.12. um 09:20 UTC

Wind 14 kt aus 210°

Sichtweite 10 km oder mehr

gering bewölkt in 1500 ft

aufgebrochene Bewölkung in 1900 ft

Temperatur 9.0°C

Taupunkt 5.0°C

Luftfeuchtigkeit 76%

Luftdruck 989 hPa

ETHC 010920Z 21014KT 9999 FEW015 BKN019 09/05 Q0989 WHT BLU TEMPO GRN

Prognose für ETHC

vom 01.12. um 08:29 UTC

Zwischen 09:00 UTC und 11:00 UTC

Wind 15 kt aus 220° in Böen 25 kt

Sichtweite 10 km oder mehr

keine signifikanten Wettererscheinungen

aufgelockert bewölkt in 1200 ft

aufgebrochene Bewölkung in 2500 ft


Zwischen 09:00 UTC und 13:00 UTC zeitweise

Wind 18 kt aus 230° in Böen 30 kt

Sichtweite 4000 m

Regen

Sprühregen

aufgebrochene Bewölkung in 800 ft


Zwischen 11:00 und 13:00 UTC übergehend zu

Wind 22 kt aus 240° in Böen 35 kt

Sichtweite 10 km oder mehr

keine signifikanten Wettererscheinungen

aufgelockert bewölkt in 1500 ft

aufgebrochene Bewölkung in 3000 ft


Zwischen 13:00 UTC und 18:00 UTC zeitweise

Wind 25 kt aus 260° in Böen 40 kt

Sichtweite 5000 m

Regenschauer

aufgelockert bewölkt in 1000 ft

aufgebrochene Bewölkung in 1500 ft

TAF ETHC 010829Z 0109/0118 22015G25KT 9999 NSW SCT012 BKN025 TEMPO 0109/0113 23018G30KT 4000 RADZ BKN008 BECMG 0111/0113 24022G35KT 9999 NSW SCT015 BKN030 TEMPO 0113/0118 26025G40KT 5000 SHRA SCT010 BKN015CB
Impressum